Time;durP1;ratioP1;P1;durP2;ratioP2;P2;SDS_P1;SDS_P2;PMS_P1;PMS_P2;Temp;Humidity;BMP_temperature;BMP_pressure;BME280_temperature;BME280_humidity;BME280_pressure;Samples;Min_cycle;Max_cycle;Signal;HPM_P1;HPM_P2
2020/12/06 00:02:00;;;;;;;14.32;4.10;;;;;;;;;;4983290;28;20077;-58
2020/12/06 00:04:27;;;;;;;11.50;4.25;;;;;;;;;;5013090;28;20078;-58
2020/12/06 00:06:53;;;;;;;11.15;4.47;;;;;;;;;;4985593;28;20123;-58
2020/12/06 00:09:20;;;;;;;10.35;4.10;;;;;;;;;;4980939;28;20042;-57
2020/12/06 00:11:46;;;;;;;9.32;3.80;;;;;;;;;;4984894;28;20050;-55
2020/12/06 00:14:12;;;;;;;10.43;3.78;;;;;;;;;;4985961;28;20120;-57
2020/12/06 00:16:39;;;;;;;12.05;4.80;;;;;;;;;;4997173;28;20049;-55
2020/12/06 00:19:06;;;;;;;15.20;5.43;;;;;;;;;;5001749;28;20070;-57
2020/12/06 00:21:32;;;;;;;11.88;4.78;;;;;;;;;;4982179;28;20051;-59
2020/12/06 00:24:04;;;;;;;12.65;4.47;;;;;;;;;;5002162;28;20074;-58
2020/12/06 00:26:30;;;;;;;16.08;4.78;;;;;;;;;;4981106;28;20074;-57
2020/12/06 00:28:56;;;;;;;13.77;5.15;;;;;;;;;;4983908;28;20061;-58
2020/12/06 00:31:23;;;;;;;11.52;4.60;;;;;;;;;;4991754;28;20049;-60
2020/12/06 00:33:50;;;;;;;11.52;4.68;;;;;;;;;;4987259;28;20090;-58
2020/12/06 00:36:16;;;;;;;15.95;4.65;;;;;;;;;;4980351;28;20046;-60
2020/12/06 00:38:43;;;;;;;10.43;4.63;;;;;;;;;;4985529;28;20056;-58
2020/12/06 00:41:11;;;;;;;8.88;4.15;;;;;;;;;;4978083;28;20046;-54
2020/12/06 00:43:37;;;;;;;13.40;5.03;;;;;;;;;;4984049;28;20042;-58
2020/12/06 00:46:03;;;;;;;11.93;5.13;;;;;;;;;;4978359;28;20128;-55
2020/12/06 00:48:29;;;;;;;11.05;4.47;;;;;;;;;;4982068;28;20073;-54
2020/12/06 00:50:56;;;;;;;12.27;5.38;;;;;;;;;;4981927;28;20061;-57
2020/12/06 00:53:22;;;;;;;12.40;4.78;;;;;;;;;;4986055;28;20042;-57
2020/12/06 00:55:48;;;;;;;10.18;4.50;;;;;;;;;;4987067;28;20046;-56
2020/12/06 00:58:14;;;;;;;15.23;4.72;;;;;;;;;;4981062;28;20336;-60
2020/12/06 01:00:41;;;;;;;15.32;5.10;;;;;;;;;;5000490;28;20034;-59
2020/12/06 01:03:07;;;;;;;10.65;4.57;;;;;;;;;;4976443;28;20053;-57
2020/12/06 01:05:33;;;;;;;12.95;4.78;;;;;;;;;;4982395;28;20035;-54
2020/12/06 01:08:00;;;;;;;13.93;4.72;;;;;;;;;;4977483;28;20039;-59
2020/12/06 01:10:27;;;;;;;10.25;3.90;;;;;;;;;;4981219;28;20054;-58
2020/12/06 01:12:53;;;;;;;11.10;4.45;;;;;;;;;;4977071;28;20047;-59
2020/12/06 01:15:19;;;;;;;12.43;4.80;;;;;;;;;;4981067;28;20069;-58
2020/12/06 01:17:46;;;;;;;12.07;5.18;;;;;;;;;;4976504;28;20078;-60
2020/12/06 01:20:13;;;;;;;10.65;4.68;;;;;;;;;;4979276;28;20102;-60
2020/12/06 01:22:39;;;;;;;12.93;4.65;;;;;;;;;;4970786;28;20125;-57
2020/12/06 01:25:06;;;;;;;10.65;4.80;;;;;;;;;;4961290;28;20055;-61
2020/12/06 01:27:32;;;;;;;12.38;4.40;;;;;;;;;;4961288;28;20038;-58
2020/12/06 01:29:58;;;;;;;12.13;4.68;;;;;;;;;;4997158;28;20058;-57
2020/12/06 01:32:24;;;;;;;12.05;4.75;;;;;;;;;;4975055;28;20046;-59
2020/12/06 01:34:51;;;;;;;11.85;4.25;;;;;;;;;;4962091;28;20076;-58
2020/12/06 01:37:17;;;;;;;16.92;5.03;;;;;;;;;;4960990;28;20035;-56
2020/12/06 01:39:43;;;;;;;13.82;4.82;;;;;;;;;;4958621;28;20062;-58
2020/12/06 01:42:10;;;;;;;12.45;4.57;;;;;;;;;;4983554;28;20101;-56
2020/12/06 01:44:36;;;;;;;10.27;4.40;;;;;;;;;;4965664;28;20075;-55
2020/12/06 01:47:02;;;;;;;10.15;4.47;;;;;;;;;;4962865;28;20045;-58
2020/12/06 01:49:35;;;;;;;14.57;5.47;;;;;;;;;;4970072;28;20039;-56
2020/12/06 01:52:02;;;;;;;11.63;4.43;;;;;;;;;;4981231;28;20042;-57
2020/12/06 01:54:28;;;;;;;13.60;4.78;;;;;;;;;;4979082;28;20042;-59
2020/12/06 01:56:54;;;;;;;12.45;5.30;;;;;;;;;;4981873;28;20041;-56
2020/12/06 01:59:21;;;;;;;12.40;4.75;;;;;;;;;;4980231;28;20042;-57
2020/12/06 02:01:53;;;;;;;14.45;4.80;;;;;;;;;;4983743;28;20049;-60
2020/12/06 02:04:19;;;;;;;12.95;4.00;;;;;;;;;;4978496;28;20058;-60
2020/12/06 02:06:45;;;;;;;10.68;4.22;;;;;;;;;;4982452;28;20046;-56
2020/12/06 02:09:11;;;;;;;10.68;4.82;;;;;;;;;;4978213;28;20061;-60
2020/12/06 02:11:38;;;;;;;11.90;4.65;;;;;;;;;;4963415;28;20074;-59
2020/12/06 02:14:04;;;;;;;11.73;4.88;;;;;;;;;;4960909;28;20047;-60
2020/12/06 02:16:31;;;;;;;11.18;4.75;;;;;;;;;;5002146;28;20299;-57
2020/12/06 02:18:57;;;;;;;13.30;5.70;;;;;;;;;;4979516;28;20071;-55
2020/12/06 02:21:24;;;;;;;13.40;4.65;;;;;;;;;;4976488;28;20050;-60
2020/12/06 02:23:50;;;;;;;14.52;5.35;;;;;;;;;;4963370;28;20043;-59
2020/12/06 02:26:16;;;;;;;12.35;4.50;;;;;;;;;;4976285;28;20046;-55
2020/12/06 02:29:00;;;;;;;9.95;4.43;;;;;;;;;;4983481;28;20058;-55
2020/12/06 02:31:26;;;;;;;9.65;4.65;;;;;;;;;;4964418;28;20047;-57
2020/12/06 02:33:52;;;;;;;12.32;4.53;;;;;;;;;;4963745;28;20039;-56
2020/12/06 02:36:18;;;;;;;12.15;4.55;;;;;;;;;;4972778;28;20053;-56
2020/12/06 02:38:48;;;;;;;13.90;4.90;;;;;;;;;;4982122;28;20042;-58
2020/12/06 02:41:14;;;;;;;12.32;5.10;;;;;;;;;;4973764;28;20057;-58
2020/12/06 02:43:40;;;;;;;10.43;4.55;;;;;;;;;;4983100;28;20038;-57
2020/12/06 02:46:06;;;;;;;13.13;5.50;;;;;;;;;;4979558;28;20051;-61
2020/12/06 02:48:32;;;;;;;13.07;4.93;;;;;;;;;;4983418;28;20050;-57
2020/12/06 02:50:58;;;;;;;12.15;5.00;;;;;;;;;;4973959;28;20057;-56
2020/12/06 02:53:24;;;;;;;11.15;4.35;;;;;;;;;;4963885;28;20043;-57
2020/12/06 02:55:51;;;;;;;12.60;4.78;;;;;;;;;;4961910;28;20066;-56
2020/12/06 02:58:17;;;;;;;10.40;5.10;;;;;;;;;;4961864;28;20043;-53
2020/12/06 03:03:18;;;;;;;13.38;4.95;;;;;;;;;;4999646;22;20125;-56
2020/12/06 03:05:44;;;;;;;11.07;4.93;;;;;;;;;;4967117;28;20065;-55
2020/12/06 03:08:10;;;;;;;11.00;4.78;;;;;;;;;;4962398;28;20082;-58
2020/12/06 03:10:38;;;;;;;10.70;4.70;;;;;;;;;;4987342;28;20051;-61
2020/12/06 03:13:05;;;;;;;12.63;4.75;;;;;;;;;;4962799;28;20042;-58
2020/12/06 03:15:31;;;;;;;10.95;4.93;;;;;;;;;;4986938;28;20055;-60
2020/12/06 03:17:57;;;;;;;11.45;4.90;;;;;;;;;;4964379;28;20047;-57
2020/12/06 03:20:31;;;;;;;12.13;4.85;;;;;;;;;;4986008;28;20053;-58
2020/12/06 03:22:59;;;;;;;12.23;4.93;;;;;;;;;;4968268;28;20117;-60
2020/12/06 03:25:25;;;;;;;12.27;4.93;;;;;;;;;;4983155;28;20054;-59
2020/12/06 03:27:51;;;;;;;16.35;5.63;;;;;;;;;;4969729;28;20053;-60
2020/12/06 03:30:18;;;;;;;14.05;5.03;;;;;;;;;;4982290;28;20524;-55
2020/12/06 03:32:44;;;;;;;12.75;5.00;;;;;;;;;;4966033;28;20026;-54
2020/12/06 03:35:11;;;;;;;11.88;5.20;;;;;;;;;;4965334;28;20060;-58
2020/12/06 03:37:37;;;;;;;12.18;5.68;;;;;;;;;;4969799;28;20034;-55
2020/12/06 03:40:05;;;;;;;11.90;5.18;;;;;;;;;;4968539;28;20034;-59
2020/12/06 03:42:31;;;;;;;11.48;5.40;;;;;;;;;;4952678;28;20046;-59
2020/12/06 03:44:57;;;;;;;10.68;4.28;;;;;;;;;;4950534;28;20043;-60
2020/12/06 03:47:24;;;;;;;10.32;4.93;;;;;;;;;;4960260;28;20042;-57
2020/12/06 03:49:54;;;;;;;14.35;5.07;;;;;;;;;;4970806;28;20053;-58
2020/12/06 03:52:20;;;;;;;8.52;3.63;;;;;;;;;;4965219;28;20147;-58
2020/12/06 03:54:46;;;;;;;14.15;5.53;;;;;;;;;;4969828;28;20090;-57
2020/12/06 03:57:12;;;;;;;10.70;4.70;;;;;;;;;;4983973;28;20489;-53
2020/12/06 03:59:40;;;;;;;10.40;3.97;;;;;;;;;;4966781;28;20040;-57
2020/12/06 04:02:06;;;;;;;12.75;4.93;;;;;;;;;;4973152;28;20039;-53
2020/12/06 04:04:33;;;;;;;11.55;4.55;;;;;;;;;;4969499;28;20043;-55
2020/12/06 04:06:59;;;;;;;13.85;5.25;;;;;;;;;;4969242;28;20050;-58
2020/12/06 04:09:30;;;;;;;11.50;4.82;;;;;;;;;;4969871;28;20038;-53
2020/12/06 04:11:56;;;;;;;12.65;5.40;;;;;;;;;;5001394;28;20038;-55
2020/12/06 04:14:22;;;;;;;11.00;5.25;;;;;;;;;;4995381;28;20061;-56
2020/12/06 04:16:49;;;;;;;10.05;4.25;;;;;;;;;;4969732;28;20101;-58
2020/12/06 04:19:19;;;;;;;11.40;5.05;;;;;;;;;;4967821;28;20058;-58
2020/12/06 04:21:46;;;;;;;12.82;4.63;;;;;;;;;;5002680;28;20038;-56
2020/12/06 04:24:12;;;;;;;11.20;4.75;;;;;;;;;;5006452;28;20045;-57
2020/12/06 04:26:39;;;;;;;11.98;5.07;;;;;;;;;;5012185;28;20045;-55
2020/12/06 04:29:05;;;;;;;12.77;5.05;;;;;;;;;;5008964;28;20128;-58
2020/12/06 04:31:32;;;;;;;11.93;4.70;;;;;;;;;;5005410;28;20055;-53
2020/12/06 04:33:58;;;;;;;13.20;4.60;;;;;;;;;;5009411;28;20045;-57
2020/12/06 04:36:24;;;;;;;9.13;3.92;;;;;;;;;;5001223;28;20034;-60
2020/12/06 04:38:51;;;;;;;10.52;4.25;;;;;;;;;;4951649;28;20051;-56
2020/12/06 04:41:24;;;;;;;12.68;4.43;;;;;;;;;;4966056;28;20051;-60
2020/12/06 04:43:50;;;;;;;11.60;5.10;;;;;;;;;;4982803;28;20030;-57
2020/12/06 04:46:16;;;;;;;10.57;4.35;;;;;;;;;;4956103;28;20122;-59
2020/12/06 04:48:50;;;;;;;12.50;4.50;;;;;;;;;;4948224;28;20027;-59
2020/12/06 04:51:25;;;;;;;12.52;4.97;;;;;;;;;;4944562;28;20031;-58
2020/12/06 04:53:56;;;;;;;12.55;5.03;;;;;;;;;;4947905;28;20065;-60
2020/12/06 04:56:23;;;;;;;11.85;4.78;;;;;;;;;;4946083;28;20042;-60
2020/12/06 04:58:51;;;;;;;10.75;4.55;;;;;;;;;;4949123;28;20043;-58
2020/12/06 05:01:19;;;;;;;11.38;4.55;;;;;;;;;;4949805;28;20058;-60
2020/12/06 05:03:46;;;;;;;9.48;4.55;;;;;;;;;;4949431;28;20071;-58
2020/12/06 05:06:14;;;;;;;11.95;4.55;;;;;;;;;;4946335;28;20544;-58
2020/12/06 05:08:41;;;;;;;13.68;5.43;;;;;;;;;;4968520;28;20532;-57
2020/12/06 05:11:10;;;;;;;12.13;5.03;;;;;;;;;;4967821;28;20058;-56
2020/12/06 05:13:36;;;;;;;17.40;4.60;;;;;;;;;;4966601;28;20042;-60
2020/12/06 05:16:06;;;;;;;11.70;4.88;;;;;;;;;;5001511;28;20132;-60
2020/12/06 05:18:32;;;;;;;13.07;4.65;;;;;;;;;;4985881;28;20514;-60
2020/12/06 05:20:59;;;;;;;10.25;4.75;;;;;;;;;;5004841;28;20368;-61
2020/12/06 05:23:25;;;;;;;11.02;5.50;;;;;;;;;;5002996;28;20109;-57
2020/12/06 05:25:54;;;;;;;16.20;6.10;;;;;;;;;;5008859;28;20037;-54
2020/12/06 05:28:21;;;;;;;11.57;4.82;;;;;;;;;;4988161;28;20035;-60
2020/12/06 05:30:48;;;;;;;11.32;5.15;;;;;;;;;;4987140;28;20038;-56
2020/12/06 05:33:16;;;;;;;13.25;5.72;;;;;;;;;;4972835;28;20098;-56
2020/12/06 05:35:43;;;;;;;11.80;5.07;;;;;;;;;;4965516;28;20043;-55
2020/12/06 05:38:09;;;;;;;13.40;5.10;;;;;;;;;;4970120;28;20054;-61
2020/12/06 05:40:43;;;;;;;11.18;5.20;;;;;;;;;;4988266;28;20046;-56
2020/12/06 05:43:09;;;;;;;10.63;5.15;;;;;;;;;;4981817;28;20073;-56
2020/12/06 05:45:37;;;;;;;12.23;5.50;;;;;;;;;;4987983;28;20042;-59
2020/12/06 05:48:04;;;;;;;13.23;5.70;;;;;;;;;;4981859;28;20031;-58
2020/12/06 05:50:34;;;;;;;15.90;6.47;;;;;;;;;;4969632;28;20118;-58
2020/12/06 05:53:00;;;;;;;9.27;4.97;;;;;;;;;;4971627;28;20059;-57
2020/12/06 05:55:26;;;;;;;11.32;5.13;;;;;;;;;;4968044;28;20039;-59
2020/12/06 05:57:53;;;;;;;13.88;5.47;;;;;;;;;;4966264;28;20038;-59
2020/12/06 06:00:20;;;;;;;10.80;5.03;;;;;;;;;;4980986;28;20125;-56
2020/12/06 06:02:53;;;;;;;16.05;5.78;;;;;;;;;;4986471;28;20124;-58
2020/12/06 06:05:21;;;;;;;13.88;6.20;;;;;;;;;;4980796;28;20045;-60
2020/12/06 06:07:48;;;;;;;13.32;5.75;;;;;;;;;;4987111;28;20034;-56
2020/12/06 06:10:17;;;;;;;13.65;5.38;;;;;;;;;;4969023;28;20043;-58
2020/12/06 06:12:43;;;;;;;15.50;5.53;;;;;;;;;;4965836;28;20043;-57
2020/12/06 06:15:09;;;;;;;12.35;5.07;;;;;;;;;;4973987;28;20038;-57
2020/12/06 06:17:35;;;;;;;11.13;5.07;;;;;;;;;;4985673;28;20401;-56
2020/12/06 06:20:03;;;;;;;14.35;5.90;;;;;;;;;;4974555;28;20035;-56
2020/12/06 06:22:31;;;;;;;12.23;5.50;;;;;;;;;;4966030;28;20050;-58
2020/12/06 06:24:59;;;;;;;12.50;5.57;;;;;;;;;;4970211;28;20031;-54
2020/12/06 06:27:25;;;;;;;17.27;5.87;;;;;;;;;;4986726;28;20038;-49
2020/12/06 06:29:51;;;;;;;12.77;5.70;;;;;;;;;;4978689;28;20091;-59
2020/12/06 06:32:21;;;;;;;11.02;4.97;;;;;;;;;;4967157;28;20059;-58
2020/12/06 06:34:47;;;;;;;11.68;5.30;;;;;;;;;;4962110;28;20122;-57
2020/12/06 06:37:16;;;;;;;17.40;5.85;;;;;;;;;;4968821;28;20050;-54
2020/12/06 06:39:46;;;;;;;13.00;5.85;;;;;;;;;;4966378;28;20043;-55
2020/12/06 06:42:15;;;;;;;13.35;5.95;;;;;;;;;;4970276;28;20038;-54
2020/12/06 06:44:42;;;;;;;15.23;6.22;;;;;;;;;;4966127;28;20043;-56
2020/12/06 06:47:08;;;;;;;17.42;6.38;;;;;;;;;;4979408;28;20067;-54
2020/12/06 06:49:40;;;;;;;16.25;6.25;;;;;;;;;;4985200;28;20055;-53
2020/12/06 06:52:06;;;;;;;14.30;6.25;;;;;;;;;;4985392;28;20027;-54
2020/12/06 06:54:33;;;;;;;16.92;6.05;;;;;;;;;;4984657;28;20069;-58
2020/12/06 06:57:00;;;;;;;13.43;5.97;;;;;;;;;;4969897;28;20102;-56
2020/12/06 06:59:37;;;;;;;15.43;6.85;;;;;;;;;;4967591;28;20337;-57
2020/12/06 07:02:04;;;;;;;16.83;6.80;;;;;;;;;;4974584;28;20043;-57
2020/12/06 07:04:30;;;;;;;15.48;6.68;;;;;;;;;;4986550;28;20328;-56
2020/12/06 07:06:56;;;;;;;19.27;6.93;;;;;;;;;;4983908;28;20039;-55
2020/12/06 07:09:24;;;;;;;18.95;7.32;;;;;;;;;;4983015;28;20596;-59
2020/12/06 07:11:53;;;;;;;17.87;7.20;;;;;;;;;;4970872;28;20453;-54
2020/12/06 07:14:24;;;;;;;16.77;7.00;;;;;;;;;;4986987;28;20280;-55
2020/12/06 07:16:50;;;;;;;15.98;6.45;;;;;;;;;;4985097;28;20124;-54
2020/12/06 07:19:16;;;;;;;16.25;7.38;;;;;;;;;;4994030;28;20042;-55
2020/12/06 07:21:42;;;;;;;15.93;6.60;;;;;;;;;;4980596;28;20039;-58
2020/12/06 07:24:08;;;;;;;15.05;6.75;;;;;;;;;;4967241;28;20023;-54
2020/12/06 07:26:35;;;;;;;18.33;7.65;;;;;;;;;;4965353;28;20441;-58
2020/12/06 07:29:02;;;;;;;15.20;7.28;;;;;;;;;;4984529;28;20035;-56
2020/12/06 07:31:30;;;;;;;16.90;7.15;;;;;;;;;;4985621;28;20046;-60
2020/12/06 07:33:56;;;;;;;14.85;6.10;;;;;;;;;;4965151;28;20474;-55
2020/12/06 07:36:24;;;;;;;17.35;7.03;;;;;;;;;;4968694;28;20051;-60
2020/12/06 07:38:50;;;;;;;16.77;6.35;;;;;;;;;;4963256;28;20035;-54
2020/12/06 07:41:17;;;;;;;17.27;7.15;;;;;;;;;;4971130;28;20034;-58
2020/12/06 07:43:43;;;;;;;17.95;6.95;;;;;;;;;;4981130;28;20043;-60
2020/12/06 07:46:16;;;;;;;19.50;7.72;;;;;;;;;;4985997;28;20530;-56
2020/12/06 07:48:43;;;;;;;16.33;6.97;;;;;;;;;;4982187;28;20022;-59
2020/12/06 07:51:27;;;;;;;14.70;5.63;;;;;;;;;;4985652;28;20054;-58
2020/12/06 07:53:53;;;;;;;14.35;5.80;;;;;;;;;;4997585;28;20331;-58
2020/12/06 07:56:21;;;;;;;17.73;7.25;;;;;;;;;;5000579;28;20046;-59
2020/12/06 07:58:51;;;;;;;17.50;6.77;;;;;;;;;;4975686;28;20057;-57
2020/12/06 08:01:37;;;;;;;15.38;6.32;;;;;;;;;;4985184;28;20058;-59
2020/12/06 08:04:05;;;;;;;15.93;6.93;;;;;;;;;;4971465;28;20038;-59
2020/12/06 08:06:33;;;;;;;13.93;5.95;;;;;;;;;;4966049;28;20043;-55
2020/12/06 08:09:00;;;;;;;15.75;7.20;;;;;;;;;;4964629;28;20043;-56
2020/12/06 08:11:29;;;;;;;14.55;5.75;;;;;;;;;;4986106;28;20049;-60
2020/12/06 08:13:56;;;;;;;19.10;6.18;;;;;;;;;;4978387;28;20042;-57
2020/12/06 08:16:22;;;;;;;19.50;6.32;;;;;;;;;;4971612;28;20571;-60
2020/12/06 08:18:57;;;;;;;16.65;7.05;;;;;;;;;;4977561;28;20031;-58
2020/12/06 08:21:25;;;;;;;14.30;6.30;;;;;;;;;;4999927;28;20442;-60
2020/12/06 08:23:51;;;;;;;18.90;6.68;;;;;;;;;;4976011;28;20039;-60
2020/12/06 08:26:17;;;;;;;17.55;6.45;;;;;;;;;;4964014;28;20046;-58
2020/12/06 08:28:49;;;;;;;14.52;6.13;;;;;;;;;;4964889;28;20039;-57
2020/12/06 08:31:19;;;;;;;17.67;7.25;;;;;;;;;;4961900;28;20061;-58
2020/12/06 08:33:45;;;;;;;15.10;6.60;;;;;;;;;;4964760;28;20054;-57
2020/12/06 08:36:22;;;;;;;17.15;7.55;;;;;;;;;;4963516;28;20055;-59
2020/12/06 08:38:48;;;;;;;18.15;6.65;;;;;;;;;;4967241;28;20082;-56
2020/12/06 08:41:14;;;;;;;17.40;6.70;;;;;;;;;;4958073;28;20042;-54
2020/12/06 08:43:45;;;;;;;15.95;6.60;;;;;;;;;;4971696;28;20031;-60
2020/12/06 08:46:11;;;;;;;20.25;7.60;;;;;;;;;;4964654;28;20039;-56
2020/12/06 08:48:37;;;;;;;23.55;7.95;;;;;;;;;;4966018;28;20054;-60
2020/12/06 08:51:04;;;;;;;19.42;7.18;;;;;;;;;;4962292;28;20089;-60
2020/12/06 08:53:42;;;;;;;17.67;7.85;;;;;;;;;;4978414;28;20066;-58
2020/12/06 08:59:14;;;;;;;11.75;5.20;;;;;;;;;;5121458;27;20121;-56
2020/12/06 09:01:47;;;;;;;18.65;7.20;;;;;;;;;;5065752;28;20037;-57
2020/12/06 09:04:13;;;;;;;16.75;6.93;;;;;;;;;;5076071;28;20049;-57
2020/12/06 09:06:39;;;;;;;19.42;6.63;;;;;;;;;;5067883;28;20048;-57
2020/12/06 09:09:06;;;;;;;14.95;6.57;;;;;;;;;;5096463;28;20055;-58
2020/12/06 09:11:32;;;;;;;15.75;6.50;;;;;;;;;;5083950;28;20302;-57
2020/12/06 09:13:58;;;;;;;20.42;7.60;;;;;;;;;;5083589;28;20047;-57
2020/12/06 09:16:25;;;;;;;21.05;8.98;;;;;;;;;;5092210;28;20043;-54
2020/12/06 09:18:50;;;;;;;17.80;7.50;;;;;;;;;;5089483;28;20036;-57
2020/12/06 09:21:17;;;;;;;24.27;8.55;;;;;;;;;;5066796;28;20033;-60
2020/12/06 09:23:44;;;;;;;19.15;7.07;;;;;;;;;;5072583;28;20051;-59
2020/12/06 09:26:10;;;;;;;20.88;7.88;;;;;;;;;;5074040;28;20032;-61
2020/12/06 09:28:37;;;;;;;13.57;6.50;;;;;;;;;;5080305;28;20044;-57
2020/12/06 09:31:04;;;;;;;18.02;6.80;;;;;;;;;;5073416;28;20052;-59
2020/12/06 09:33:31;;;;;;;19.17;7.70;;;;;;;;;;5083542;28;20044;-53
2020/12/06 09:35:57;;;;;;;17.33;7.20;;;;;;;;;;5073670;28;20048;-58
2020/12/06 09:38:26;;;;;;;14.75;6.30;;;;;;;;;;5068237;28;20036;-58
2020/12/06 09:40:53;;;;;;;15.18;6.80;;;;;;;;;;5071970;28;20109;-61
2020/12/06 09:43:19;;;;;;;20.58;8.68;;;;;;;;;;5066508;28;20044;-61
2020/12/06 09:45:46;;;;;;;18.17;7.63;;;;;;;;;;5074463;28;20053;-61
2020/12/06 09:48:12;;;;;;;18.55;7.03;;;;;;;;;;5082832;28;20054;-56
2020/12/06 09:50:40;;;;;;;16.40;7.05;;;;;;;;;;5079058;28;20043;-58
2020/12/06 09:53:06;;;;;;;18.40;7.80;;;;;;;;;;5067160;28;20056;-60
2020/12/06 09:55:37;;;;;;;21.20;8.63;;;;;;;;;;5074422;28;20050;-60
2020/12/06 09:58:03;;;;;;;19.95;8.30;;;;;;;;;;5063127;28;20059;-61
2020/12/06 10:00:29;;;;;;;21.35;8.35;;;;;;;;;;5072752;28;20054;-60
2020/12/06 10:02:55;;;;;;;20.63;8.25;;;;;;;;;;5065730;28;20040;-60
2020/12/06 10:05:21;;;;;;;22.52;8.20;;;;;;;;;;5062537;28;20028;-57
2020/12/06 10:07:48;;;;;;;23.42;8.90;;;;;;;;;;5081926;28;20117;-58
2020/12/06 10:10:14;;;;;;;20.02;7.72;;;;;;;;;;5064485;28;20096;-60
2020/12/06 10:12:40;;;;;;;21.83;8.20;;;;;;;;;;5071979;28;20403;-58
2020/12/06 10:15:06;;;;;;;19.52;8.13;;;;;;;;;;5068192;28;20114;-60
2020/12/06 10:17:33;;;;;;;18.92;7.75;;;;;;;;;;5073582;28;20028;-57
2020/12/06 10:20:01;;;;;;;16.23;7.57;;;;;;;;;;5068014;28;20043;-61
2020/12/06 10:22:27;;;;;;;20.13;8.13;;;;;;;;;;5073137;28;20105;-58
2020/12/06 10:24:54;;;;;;;19.60;7.50;;;;;;;;;;5068762;28;20093;-60
2020/12/06 10:27:20;;;;;;;15.98;6.85;;;;;;;;;;5069573;28;20036;-58
2020/12/06 10:29:46;;;;;;;19.63;7.40;;;;;;;;;;5067451;28;20158;-58
2020/12/06 10:32:12;;;;;;;17.67;6.43;;;;;;;;;;5074535;28;20076;-58
2020/12/06 10:34:38;;;;;;;14.85;6.43;;;;;;;;;;5068923;28;20036;-56
2020/12/06 10:37:05;;;;;;;18.42;7.50;;;;;;;;;;5074454;28;20162;-59
2020/12/06 10:39:34;;;;;;;19.88;7.72;;;;;;;;;;5065416;28;20038;-59
2020/12/06 10:42:08;;;;;;;19.02;8.02;;;;;;;;;;5047543;28;20110;-58
2020/12/06 10:44:34;;;;;;;22.45;8.70;;;;;;;;;;5051572;28;20036;-61
2020/12/06 10:47:06;;;;;;;18.63;7.78;;;;;;;;;;5069288;28;20051;-56
2020/12/06 10:49:45;;;;;;;18.55;7.57;;;;;;;;;;5061808;28;20052;-57
2020/12/06 10:52:24;;;;;;;18.50;7.45;;;;;;;;;;5045298;28;20045;-59
2020/12/06 10:54:56;;;;;;;24.02;9.02;;;;;;;;;;5058759;28;20048;-59
2020/12/06 10:57:23;;;;;;;22.13;8.45;;;;;;;;;;5052407;28;20041;-61
2020/12/06 10:59:54;;;;;;;20.25;8.70;;;;;;;;;;5052893;28;20513;-58
2020/12/06 11:02:20;;;;;;;17.70;7.57;;;;;;;;;;5062328;28;20142;-58
2020/12/06 11:04:49;;;;;;;19.30;7.50;;;;;;;;;;5067311;28;20498;-59
2020/12/06 11:07:15;;;;;;;17.55;7.38;;;;;;;;;;5069046;28;20252;-53
2020/12/06 11:09:47;;;;;;;18.00;7.68;;;;;;;;;;5076220;28;20040;-60
2020/12/06 11:12:16;;;;;;;18.70;7.90;;;;;;;;;;5059713;28;20040;-56
2020/12/06 11:14:48;;;;;;;18.33;7.93;;;;;;;;;;5070513;28;20052;-59
2020/12/06 11:17:14;;;;;;;19.17;7.97;;;;;;;;;;5062221;28;20102;-60
2020/12/06 11:19:44;;;;;;;20.35;8.35;;;;;;;;;;5073331;28;20069;-59
2020/12/06 11:22:10;;;;;;;19.88;8.50;;;;;;;;;;5093072;28;20049;-58
2020/12/06 11:24:36;;;;;;;17.70;7.63;;;;;;;;;;5071151;28;20048;-59
2020/12/06 11:27:03;;;;;;;17.67;7.90;;;;;;;;;;5087662;28;20080;-60
2020/12/06 11:29:29;;;;;;;21.35;8.57;;;;;;;;;;5073191;28;20052;-58
2020/12/06 11:31:56;;;;;;;21.65;9.27;;;;;;;;;;5063672;28;20035;-59
2020/12/06 11:34:22;;;;;;;21.13;9.32;;;;;;;;;;5079680;28;20051;-58
2020/12/06 11:36:49;;;;;;;21.08;8.07;;;;;;;;;;5073821;28;20032;-60
2020/12/06 11:39:16;;;;;;;22.75;7.75;;;;;;;;;;5061224;28;20047;-59
2020/12/06 11:41:43;;;;;;;15.32;6.78;;;;;;;;;;5074320;28;20094;-59
2020/12/06 11:44:12;;;;;;;18.35;7.90;;;;;;;;;;5057669;28;20036;-61
2020/12/06 11:46:42;;;;;;;17.15;7.53;;;;;;;;;;5086749;28;20047;-57
2020/12/06 11:49:13;;;;;;;27.63;9.23;;;;;;;;;;5061733;28;20047;-58
2020/12/06 11:51:39;;;;;;;23.83;8.70;;;;;;;;;;5063982;28;20583;-61
2020/12/06 11:54:08;;;;;;;19.90;7.80;;;;;;;;;;5076683;28;20023;-60
2020/12/06 11:56:35;;;;;;;18.38;8.10;;;;;;;;;;5082580;28;20043;-56
2020/12/06 11:59:01;;;;;;;21.08;8.95;;;;;;;;;;5097426;28;20027;-57
2020/12/06 12:01:27;;;;;;;25.15;8.48;;;;;;;;;;5101651;28;20072;-61
2020/12/06 12:03:53;;;;;;;18.55;7.47;;;;;;;;;;5076619;28;20044;-61
2020/12/06 12:06:20;;;;;;;23.65;8.45;;;;;;;;;;5081342;28;20054;-61
2020/12/06 12:08:51;;;;;;;24.83;8.05;;;;;;;;;;5075303;28;20093;-61
2020/12/06 12:11:17;;;;;;;16.90;6.85;;;;;;;;;;5100542;28;20044;-60
2020/12/06 12:13:46;;;;;;;18.35;7.25;;;;;;;;;;5072311;28;20076;-61
2020/12/06 12:16:13;;;;;;;18.70;6.93;;;;;;;;;;5050786;28;20080;-60
2020/12/06 12:18:39;;;;;;;16.33;6.15;;;;;;;;;;5049139;28;20040;-60
2020/12/06 12:21:06;;;;;;;20.75;6.85;;;;;;;;;;5064655;28;20069;-58
2020/12/06 12:23:33;;;;;;;19.08;8.30;;;;;;;;;;5063355;28;20145;-59
2020/12/06 12:25:59;;;;;;;16.23;7.22;;;;;;;;;;5083509;28;20124;-60
2020/12/06 12:28:26;;;;;;;17.80;6.95;;;;;;;;;;5082232;28;20031;-59
2020/12/06 12:30:53;;;;;;;21.55;8.80;;;;;;;;;;5063699;28;20060;-61
2020/12/06 12:33:19;;;;;;;23.80;8.82;;;;;;;;;;5062014;28;20050;-60
2020/12/06 12:35:47;;;;;;;22.25;8.80;;;;;;;;;;5088138;28;20410;-58
2020/12/06 12:38:13;;;;;;;19.60;7.93;;;;;;;;;;5083681;28;20047;-61
2020/12/06 12:40:43;;;;;;;19.38;8.30;;;;;;;;;;5066136;28;20048;-61
2020/12/06 12:43:09;;;;;;;23.45;9.13;;;;;;;;;;5064436;28;20612;-60
2020/12/06 12:45:36;;;;;;;17.35;7.53;;;;;;;;;;5070091;28;20047;-61
2020/12/06 12:48:02;;;;;;;23.08;8.48;;;;;;;;;;5072828;28;20054;-61
2020/12/06 12:50:30;;;;;;;25.67;7.97;;;;;;;;;;5069324;28;20090;-60
2020/12/06 12:52:56;;;;;;;17.75;7.90;;;;;;;;;;5072410;28;20036;-61
2020/12/06 12:55:22;;;;;;;20.75;9.15;;;;;;;;;;5071873;28;20044;-61
2020/12/06 12:57:49;;;;;;;21.55;9.63;;;;;;;;;;5070038;28;20079;-58
2020/12/06 13:00:16;;;;;;;20.40;8.88;;;;;;;;;;5073736;28;20038;-61
2020/12/06 13:02:42;;;;;;;22.25;8.75;;;;;;;;;;5084730;28;20040;-60
2020/12/06 13:05:12;;;;;;;15.00;7.10;;;;;;;;;;5071533;28;20074;-60
2020/12/06 13:07:38;;;;;;;20.75;8.32;;;;;;;;;;5074946;28;20121;-61
2020/12/06 13:10:07;;;;;;;21.73;9.02;;;;;;;;;;5090179;28;20583;-58
2020/12/06 13:12:36;;;;;;;22.05;8.77;;;;;;;;;;5073705;28;20069;-56
2020/12/06 13:15:06;;;;;;;19.17;8.05;;;;;;;;;;5073521;28;20048;-59
2020/12/06 13:17:32;;;;;;;20.90;7.63;;;;;;;;;;5069655;28;20179;-57
2020/12/06 13:19:59;;;;;;;19.95;8.27;;;;;;;;;;5070750;28;20054;-56
2020/12/06 13:22:26;;;;;;;20.50;8.45;;;;;;;;;;5087429;28;20054;-58
2020/12/06 13:24:52;;;;;;;23.63;9.43;;;;;;;;;;5074622;28;20071;-60
2020/12/06 13:27:18;;;;;;;22.75;9.68;;;;;;;;;;5070128;28;20437;-54
2020/12/06 13:29:45;;;;;;;24.73;9.43;;;;;;;;;;5076203;28;20076;-57
2020/12/06 13:32:15;;;;;;;27.25;8.48;;;;;;;;;;5084346;28;20047;-60
2020/12/06 13:34:41;;;;;;;21.63;9.20;;;;;;;;;;5071815;28;20048;-54
2020/12/06 13:37:07;;;;;;;21.55;8.77;;;;;;;;;;5058130;28;20142;-60
2020/12/06 13:39:34;;;;;;;23.95;9.93;;;;;;;;;;5058880;28;20241;-56
2020/12/06 13:42:02;;;;;;;23.42;10.30;;;;;;;;;;5066897;28;20055;-60
2020/12/06 13:44:29;;;;;;;26.20;10.70;;;;;;;;;;5075559;28;20048;-60
2020/12/06 13:46:55;;;;;;;21.90;9.65;;;;;;;;;;5069403;28;20047;-61
2020/12/06 13:49:23;;;;;;;22.73;10.15;;;;;;;;;;5075927;28;20043;-57
2020/12/06 13:51:49;;;;;;;26.10;11.13;;;;;;;;;;5073643;28;20080;-60
2020/12/06 13:54:15;;;;;;;26.23;9.45;;;;;;;;;;5079601;28;20035;-57
2020/12/06 13:56:43;;;;;;;23.45;9.75;;;;;;;;;;5092777;28;20543;-59
2020/12/06 13:59:10;;;;;;;30.98;10.35;;;;;;;;;;5065967;28;20044;-58
2020/12/06 14:01:36;;;;;;;25.65;10.32;;;;;;;;;;5072239;28;20048;-55
2020/12/06 14:04:02;;;;;;;25.08;10.95;;;;;;;;;;5067743;28;20139;-55
2020/12/06 14:06:30;;;;;;;22.88;10.43;;;;;;;;;;5068789;28;20037;-55
2020/12/06 14:08:56;;;;;;;21.23;8.97;;;;;;;;;;5065371;28;20102;-58
2020/12/06 14:11:23;;;;;;;26.58;8.15;;;;;;;;;;5068339;28;20167;-57
2020/12/06 14:13:49;;;;;;;20.75;8.80;;;;;;;;;;5066948;28;20051;-60
2020/12/06 14:16:15;;;;;;;28.33;10.73;;;;;;;;;;5069435;28;20069;-59
2020/12/06 14:18:41;;;;;;;25.77;10.75;;;;;;;;;;5067914;28;20058;-58
2020/12/06 14:21:10;;;;;;;24.52;9.15;;;;;;;;;;5070129;28;20143;-58
2020/12/06 14:23:40;;;;;;;19.80;9.13;;;;;;;;;;5065030;28;20088;-58
2020/12/06 14:26:06;;;;;;;25.85;10.45;;;;;;;;;;5070172;28;20052;-59
2020/12/06 14:28:33;;;;;;;18.88;8.35;;;;;;;;;;5069631;28;20032;-59
2020/12/06 14:30:59;;;;;;;18.92;8.30;;;;;;;;;;5071096;28;20041;-59
2020/12/06 14:33:25;;;;;;;21.33;7.95;;;;;;;;;;5065823;28;20052;-58
2020/12/06 14:35:54;;;;;;;23.80;9.23;;;;;;;;;;5071419;28;20072;-61
2020/12/06 14:38:20;;;;;;;;;;;;;;;;;;5068133;28;20072;-54